createdAt,value
2023-04-29T00:01:20.971Z,31.15
2023-04-29T00:03:49.698Z,28.88
2023-04-29T00:06:18.117Z,28.70
2023-04-29T00:08:46.292Z,27.42
2023-04-29T00:11:14.288Z,30.45
2023-04-29T00:13:42.263Z,29.85
2023-04-29T00:16:11.405Z,31.95
2023-04-29T00:18:40.827Z,30.35
2023-04-29T00:21:09.313Z,29.63
2023-04-29T00:23:37.402Z,33.08
2023-04-29T00:26:05.419Z,34.72
2023-04-29T00:28:33.803Z,39.38
2023-04-29T00:31:02.260Z,36.55
2023-04-29T00:33:30.295Z,39.42
2023-04-29T00:35:59.657Z,37.25
2023-04-29T00:38:27.626Z,40.75
2023-04-29T00:40:56.019Z,42.22
2023-04-29T00:43:24.333Z,38.95
2023-04-29T00:45:52.490Z,39.15
2023-04-29T00:48:20.564Z,37.88
2023-04-29T00:50:48.761Z,41.78
2023-04-29T00:53:18.190Z,39.13
2023-04-29T00:55:46.276Z,40.60
2023-04-29T00:58:14.268Z,39.55
2023-04-29T01:00:44.077Z,39.13
2023-04-29T01:03:12.346Z,41.22
2023-04-29T01:05:40.559Z,39.47
2023-04-29T01:08:22.053Z,37.65
2023-04-29T01:10:55.960Z,38.28
2023-04-29T01:13:30.782Z,40.42
2023-04-29T01:16:03.729Z,36.38
2023-04-29T01:18:35.085Z,36.85
2023-04-29T01:21:03.101Z,34.47
2023-04-29T01:23:32.830Z,37.33
2023-04-29T01:26:00.887Z,34.03
2023-04-29T01:28:42.041Z,35.78
2023-04-29T01:31:16.751Z,38.47
2023-04-29T01:33:49.921Z,40.63
2023-04-29T01:38:57.655Z,45.05
2023-04-29T01:41:32.750Z,42.88
2023-04-29T01:44:01.826Z,44.33
2023-04-29T01:46:30.193Z,47.85
2023-04-29T01:48:58.390Z,50.72
2023-04-29T01:51:26.503Z,46.80
2023-04-29T01:53:55.926Z,45.20
2023-04-29T01:56:23.922Z,49.65
2023-04-29T01:58:52.302Z,51.42
2023-04-29T02:01:20.337Z,53.97
2023-04-29T02:03:48.702Z,50.47
2023-04-29T02:06:16.896Z,53.13
2023-04-29T02:08:44.908Z,51.55
2023-04-29T02:11:14.256Z,50.33
2023-04-29T02:13:42.300Z,50.28
2023-04-29T02:16:11.524Z,51.60
2023-04-29T02:18:40.145Z,47.38
2023-04-29T02:21:08.639Z,44.35
2023-04-29T02:23:36.961Z,44.90
2023-04-29T02:26:06.262Z,47.13
2023-04-29T02:28:35.811Z,45.58
2023-04-29T02:31:03.896Z,43.63
2023-04-29T02:33:31.946Z,43.75
2023-04-29T02:36:00.383Z,43.80
2023-04-29T02:38:28.406Z,44.35
2023-04-29T02:40:56.381Z,43.13
2023-04-29T02:43:24.465Z,50.90
2023-04-29T02:45:53.890Z,48.22
2023-04-29T02:48:21.934Z,55.10
2023-04-29T02:50:49.926Z,56.38
2023-04-29T02:53:17.913Z,54.85
2023-04-29T02:55:45.965Z,52.08
2023-04-29T02:58:14.281Z,57.25
2023-04-29T03:00:43.009Z,50.35
2023-04-29T03:03:12.548Z,60.20
2023-04-29T03:05:40.778Z,53.08
2023-04-29T03:08:10.313Z,57.83
2023-04-29T03:10:41.444Z,52.50
2023-04-29T03:13:09.876Z,52.67
2023-04-29T03:15:39.472Z,49.97
2023-04-29T03:18:07.525Z,46.60
2023-04-29T03:20:37.029Z,55.42
2023-04-29T03:23:05.230Z,51.97
2023-04-29T03:25:33.219Z,57.72
2023-04-29T03:28:01.214Z,59.75
2023-04-29T03:30:29.224Z,64.07
2023-04-29T03:32:57.463Z,61.17
2023-04-29T03:35:25.642Z,61.67
2023-04-29T03:37:55.002Z,76.63
2023-04-29T03:40:23.206Z,78.93
2023-04-29T03:42:51.337Z,95.45
2023-04-29T03:45:19.424Z,110.60
2023-04-29T03:47:47.441Z,118.82
2023-04-29T03:50:15.863Z,121.72
2023-04-29T03:52:43.854Z,118.85
2023-04-29T03:55:13.884Z,126.47
2023-04-29T03:57:42.612Z,125.05
2023-04-29T04:00:11.739Z,131.20
2023-04-29T04:02:39.901Z,131.45
2023-04-29T04:05:08.353Z,127.68
2023-04-29T04:07:36.379Z,137.63
2023-04-29T04:10:05.439Z,118.65
2023-04-29T04:12:34.876Z,124.25
2023-04-29T04:15:04.082Z,120.93
2023-04-29T04:17:32.135Z,107.45
2023-04-29T04:20:00.173Z,102.38
2023-04-29T04:22:28.151Z,93.70
2023-04-29T04:24:56.383Z,95.80
2023-04-29T04:27:24.511Z,96.72
2023-04-29T04:29:56.482Z,95.85
2023-04-29T04:32:24.674Z,79.05
2023-04-29T04:34:52.919Z,83.30
2023-04-29T04:37:20.923Z,89.78
2023-04-29T04:39:49.348Z,83.00
2023-04-29T04:42:17.331Z,75.65
2023-04-29T04:44:45.432Z,85.60
2023-04-29T04:47:14.758Z,83.80
2023-04-29T04:49:42.774Z,82.18
2023-04-29T04:52:11.629Z,87.03
2023-04-29T04:54:39.612Z,87.90
2023-04-29T04:57:07.655Z,89.90
2023-04-29T04:59:35.870Z,96.30
2023-04-29T05:02:03.966Z,96.18
2023-04-29T05:04:33.501Z,99.57
2023-04-29T05:07:01.533Z,98.25
2023-04-29T05:09:29.574Z,95.28
2023-04-29T05:11:59.416Z,87.28
2023-04-29T05:14:27.608Z,88.45
2023-04-29T05:16:59.915Z,83.78
2023-04-29T05:19:27.949Z,85.55
2023-04-29T05:21:57.289Z,85.75
2023-04-29T05:24:26.197Z,88.53
2023-04-29T05:26:54.188Z,78.00
2023-04-29T05:29:22.159Z,81.65
2023-04-29T05:31:50.431Z,72.47
2023-04-29T05:34:18.579Z,75.30
2023-04-29T05:36:46.741Z,81.25
2023-04-29T05:39:16.752Z,82.20
2023-04-29T05:41:44.802Z,79.20
2023-04-29T05:44:12.773Z,75.22
2023-04-29T05:46:40.861Z,75.90
2023-04-29T05:49:08.936Z,77.63
2023-04-29T05:51:37.002Z,77.50
2023-04-29T05:54:05.094Z,83.25
2023-04-29T05:56:34.482Z,70.15
2023-04-29T05:59:02.494Z,72.10
2023-04-29T06:01:30.541Z,73.95
2023-04-29T06:03:58.994Z,63.13
2023-04-29T06:06:27.404Z,60.83
2023-04-29T06:08:55.517Z,69.22
2023-04-29T06:11:23.575Z,69.05
2023-04-29T06:13:52.914Z,67.70
2023-04-29T06:16:21.427Z,71.00
2023-04-29T06:18:50.247Z,79.10
2023-04-29T06:21:18.242Z,74.00
2023-04-29T06:23:46.333Z,70.00
2023-04-29T06:26:14.586Z,74.13
2023-04-29T06:28:42.606Z,70.63
2023-04-29T06:31:12.569Z,71.10
2023-04-29T06:33:40.715Z,60.13
2023-04-29T06:36:08.920Z,71.57
2023-04-29T06:38:36.893Z,70.20
2023-04-29T06:41:05.023Z,64.22
2023-04-29T06:43:33.012Z,61.63
2023-04-29T06:46:01.256Z,61.85
2023-04-29T06:48:30.605Z,63.45
2023-04-29T06:51:00.008Z,73.05
2023-04-29T06:53:28.214Z,61.13
2023-04-29T06:55:56.244Z,62.00
2023-04-29T06:58:24.253Z,66.15
2023-04-29T07:00:52.740Z,62.08
2023-04-29T07:03:20.807Z,60.75
2023-04-29T07:05:50.268Z,60.17
2023-04-29T07:08:18.259Z,60.03
2023-04-29T07:10:46.751Z,61.65
2023-04-29T07:13:14.775Z,63.28
2023-04-29T07:15:42.774Z,59.80
2023-04-29T07:18:10.943Z,63.08
2023-04-29T07:20:38.959Z,65.07
2023-04-29T07:23:08.330Z,65.13
2023-04-29T07:25:36.875Z,62.08
2023-04-29T07:28:04.941Z,59.20
2023-04-29T07:30:33.114Z,65.63
2023-04-29T07:33:01.659Z,58.00
2023-04-29T07:35:29.723Z,62.58
2023-04-29T07:37:57.849Z,64.07
2023-04-29T07:40:27.204Z,59.17
2023-04-29T07:42:55.189Z,50.25
2023-04-29T07:45:23.238Z,48.70
2023-04-29T07:47:51.394Z,45.40
2023-04-29T07:50:19.688Z,48.47
2023-04-29T07:52:47.689Z,51.10
2023-04-29T07:55:15.932Z,46.88
2023-04-29T07:57:45.282Z,49.50
2023-04-29T08:00:13.986Z,45.22
2023-04-29T08:02:42.627Z,46.85
2023-04-29T08:05:11.545Z,37.72
2023-04-29T08:07:39.907Z,35.53
2023-04-29T08:10:09.979Z,35.78
2023-04-29T08:12:38.043Z,35.90
2023-04-29T08:15:09.753Z,32.05
2023-04-29T08:17:38.136Z,32.97
2023-04-29T08:20:08.082Z,29.40
2023-04-29T08:22:36.605Z,30.00
2023-04-29T08:25:05.716Z,31.65
2023-04-29T08:27:33.800Z,32.20
2023-04-29T08:30:01.794Z,29.25
2023-04-29T08:32:31.362Z,25.92
2023-04-29T08:34:59.352Z,35.08
2023-04-29T08:37:27.736Z,25.27
2023-04-29T08:39:55.723Z,26.80
2023-04-29T08:42:34.144Z,28.73
2023-04-29T08:45:02.415Z,31.15
2023-04-29T08:47:33.482Z,29.67
2023-04-29T08:50:04.868Z,31.02
2023-04-29T08:52:33.257Z,35.15
2023-04-29T08:55:02.561Z,39.65
2023-04-29T08:57:32.497Z,32.00
2023-04-29T09:00:01.336Z,34.60
2023-04-29T09:02:29.692Z,37.42
2023-04-29T09:05:07.391Z,41.00
2023-04-29T09:07:36.129Z,33.67
2023-04-29T09:10:06.723Z,34.72
2023-04-29T09:12:36.147Z,37.05
2023-04-29T09:15:04.700Z,35.38
2023-04-29T09:17:42.874Z,38.38
2023-04-29T09:20:31.624Z,41.58
2023-04-29T09:23:01.502Z,44.38
2023-04-29T09:25:29.674Z,41.15
2023-04-29T09:27:57.676Z,40.83
2023-04-29T09:30:26.766Z,47.38
2023-04-29T09:33:09.004Z,49.30
2023-04-29T09:35:41.041Z,48.60
2023-04-29T09:38:16.459Z,49.50
2023-04-29T09:40:57.680Z,50.53
2023-04-29T09:43:26.784Z,49.92
2023-04-29T09:45:55.020Z,50.15
2023-04-29T09:48:23.218Z,58.47
2023-04-29T09:51:03.297Z,60.90
2023-04-29T09:53:32.598Z,53.30
2023-04-29T09:56:03.068Z,54.55
2023-04-29T09:58:36.978Z,56.70
2023-04-29T10:01:05.724Z,61.50
2023-04-29T10:03:35.530Z,56.00
2023-04-29T10:06:06.561Z,61.47
2023-04-29T10:08:35.469Z,57.35
2023-04-29T10:11:05.865Z,58.10
2023-04-29T10:13:38.344Z,58.72
2023-04-29T10:16:12.500Z,50.47
2023-04-29T10:18:43.442Z,51.30
2023-04-29T10:21:15.323Z,49.58
2023-04-29T10:23:45.071Z,51.40
2023-04-29T10:26:13.902Z,53.10
2023-04-29T10:28:42.092Z,54.70
2023-04-29T10:31:10.313Z,55.90
2023-04-29T10:33:38.954Z,50.53
2023-04-29T10:36:07.699Z,46.03
2023-04-29T10:38:40.866Z,42.83
2023-04-29T10:43:38.247Z,44.03
2023-04-29T10:46:23.678Z,47.33
2023-04-29T10:48:55.463Z,46.85
2023-04-29T10:51:33.280Z,48.00
2023-04-29T10:54:10.600Z,46.13
2023-04-29T10:56:43.579Z,48.30
2023-04-29T11:01:48.564Z,49.20
2023-04-29T11:04:17.580Z,50.42
2023-04-29T11:06:48.190Z,48.65
2023-04-29T11:09:28.676Z,43.60
2023-04-29T11:12:05.468Z,43.05
2023-04-29T11:14:40.109Z,46.50
2023-04-29T11:17:10.905Z,54.80
2023-04-29T11:19:42.590Z,45.55
2023-04-29T11:22:27.241Z,41.53
2023-04-29T11:25:00.303Z,49.20
2023-04-29T11:29:59.287Z,47.95
2023-04-29T11:32:28.464Z,51.97
2023-04-29T11:34:56.894Z,42.80
2023-04-29T11:37:27.117Z,47.03
2023-04-29T11:40:02.240Z,46.88
2023-04-29T11:42:30.485Z,50.30
2023-04-29T11:45:00.380Z,46.80
2023-04-29T11:47:31.019Z,43.53
2023-04-29T11:50:07.998Z,62.70
2023-04-29T11:52:38.129Z,53.38
2023-04-29T11:55:09.607Z,49.78
2023-04-29T11:57:38.021Z,45.70
2023-04-29T12:00:08.673Z,54.28
2023-04-29T12:02:37.383Z,52.83
2023-04-29T12:05:08.082Z,45.15
2023-04-29T12:07:36.948Z,46.65
2023-04-29T12:10:07.450Z,50.08
2023-04-29T12:12:37.013Z,45.00
2023-04-29T12:15:06.539Z,41.53
2023-04-29T12:17:35.057Z,41.55
2023-04-29T12:20:03.638Z,43.15
2023-04-29T12:22:32.931Z,42.78
2023-04-29T12:25:01.038Z,46.90
2023-04-29T12:27:29.113Z,40.70
2023-04-29T12:29:58.685Z,43.40
2023-04-29T12:32:26.772Z,39.53
2023-04-29T12:34:54.974Z,35.17
2023-04-29T12:37:24.462Z,40.70
2023-04-29T12:39:52.808Z,37.53
2023-04-29T12:42:20.966Z,30.10
2023-04-29T12:44:49.563Z,35.28
2023-04-29T12:47:19.073Z,31.55
2023-04-29T12:49:49.264Z,28.27
2023-04-29T12:52:17.270Z,32.35
2023-04-29T12:54:45.357Z,32.50
2023-04-29T12:57:14.465Z,31.83
2023-04-29T12:59:42.557Z,35.63
2023-04-29T13:02:10.669Z,37.67
2023-04-29T13:04:40.509Z,32.60
2023-04-29T13:07:08.891Z,35.78
2023-04-29T13:09:38.124Z,32.92
2023-04-29T13:12:09.508Z,33.92
2023-04-29T13:14:37.789Z,34.58
2023-04-29T13:17:06.738Z,36.03
2023-04-29T13:19:46.764Z,38.63
2023-04-29T13:22:20.454Z,38.67
2023-04-29T13:24:48.600Z,34.00
2023-04-29T13:27:16.618Z,36.15
2023-04-29T13:29:44.633Z,36.72
2023-04-29T13:32:12.852Z,34.83
2023-04-29T13:34:43.255Z,37.58
2023-04-29T13:37:11.479Z,32.80
2023-04-29T13:39:41.660Z,34.58
2023-04-29T13:42:15.437Z,36.70
2023-04-29T13:44:52.306Z,40.33
2023-04-29T13:47:26.148Z,39.45
2023-04-29T13:55:35.954Z,35.55
2023-04-29T13:58:40.375Z,32.53
2023-04-29T14:01:10.290Z,35.88
2023-04-29T14:03:27.372Z,39.72
2023-04-29T14:05:55.521Z,31.90
2023-04-29T14:08:23.610Z,40.83
2023-04-29T14:10:53.323Z,35.53
2023-04-29T14:13:21.372Z,37.13
2023-04-29T14:15:49.672Z,36.50
2023-04-29T14:18:17.699Z,34.45
2023-04-29T14:20:45.985Z,32.30
2023-04-29T14:23:13.980Z,31.42
2023-04-29T14:25:42.025Z,32.70
2023-04-29T14:28:11.452Z,31.67
2023-04-29T14:30:39.554Z,34.78
2023-04-29T14:33:08.111Z,29.15
2023-04-29T14:35:36.141Z,31.55
2023-04-29T14:38:04.409Z,29.77
2023-04-29T14:40:32.372Z,30.35
2023-04-29T14:43:01.870Z,32.03
2023-04-29T14:45:32.061Z,32.08
2023-04-29T14:48:00.127Z,29.85
2023-04-29T14:50:28.314Z,32.58
2023-04-29T14:52:57.790Z,33.13
2023-04-29T14:55:25.794Z,33.75
2023-04-29T14:57:53.844Z,35.85
2023-04-29T15:00:22.038Z,35.47
2023-04-29T15:02:53.488Z,28.65
2023-04-29T15:05:21.916Z,34.53
2023-04-29T15:07:51.412Z,27.33
2023-04-29T15:10:19.817Z,27.92
2023-04-29T15:12:47.872Z,34.20
2023-04-29T15:15:15.908Z,29.85
2023-04-29T15:17:44.532Z,29.85
2023-04-29T15:20:14.355Z,29.50
2023-04-29T15:22:42.751Z,29.55
2023-04-29T15:25:11.092Z,31.63
2023-04-29T15:27:39.736Z,28.20
2023-04-29T15:30:09.711Z,26.85
2023-04-29T15:32:37.835Z,29.08
2023-04-29T15:35:06.686Z,26.95
2023-04-29T15:37:36.524Z,26.40
2023-04-29T15:40:05.023Z,30.85
2023-04-29T15:42:33.037Z,29.85
2023-04-29T15:45:01.119Z,29.27
2023-04-29T15:47:29.705Z,25.60
2023-04-29T15:49:57.711Z,28.15
2023-04-29T15:52:25.766Z,31.60
2023-04-29T15:54:55.116Z,31.20
2023-04-29T15:57:23.248Z,33.95
2023-04-29T15:59:51.267Z,30.25
2023-04-29T16:02:20.490Z,32.67
2023-04-29T16:04:48.469Z,31.25
2023-04-29T16:07:16.483Z,31.80
2023-04-29T16:09:44.701Z,32.25
2023-04-29T16:12:14.209Z,33.53
2023-04-29T16:14:42.254Z,35.03
2023-04-29T16:17:10.327Z,28.98
2023-04-29T16:19:38.357Z,28.05
2023-04-29T16:22:06.364Z,28.88
2023-04-29T16:24:34.592Z,31.73
2023-04-29T16:27:02.867Z,31.40
2023-04-29T16:29:32.256Z,26.60
2023-04-29T16:32:00.364Z,30.50
2023-04-29T16:34:28.796Z,28.85
2023-04-29T16:36:56.897Z,25.75
2023-04-29T16:39:24.961Z,25.83
2023-04-29T16:41:53.014Z,27.83
2023-04-29T16:44:21.234Z,29.08
2023-04-29T16:46:51.539Z,28.75
2023-04-29T16:49:25.782Z,25.60
2023-04-29T16:51:54.623Z,30.17
2023-04-29T16:54:22.669Z,25.65
2023-04-29T16:56:51.420Z,32.45
2023-04-29T16:59:19.892Z,24.55
2023-04-29T17:01:48.424Z,28.13
2023-04-29T17:04:18.328Z,26.25
2023-04-29T17:06:46.759Z,29.80
2023-04-29T17:09:15.825Z,25.15
2023-04-29T17:11:43.976Z,29.38
2023-04-29T17:14:11.986Z,28.48
2023-04-29T17:16:40.024Z,30.90
2023-04-29T17:19:08.185Z,26.83
2023-04-29T17:21:37.585Z,25.08
2023-04-29T17:24:06.080Z,27.13
2023-04-29T17:26:34.095Z,28.40
2023-04-29T17:29:02.129Z,24.25
2023-04-29T17:31:44.758Z,23.45
2023-04-29T17:34:18.590Z,27.48
2023-04-29T17:36:48.630Z,25.60
2023-04-29T17:39:16.820Z,31.45
2023-04-29T17:41:44.930Z,32.10
2023-04-29T17:44:13.207Z,27.33
2023-04-29T17:46:42.688Z,30.77
2023-04-29T17:49:11.802Z,31.15
2023-04-29T17:51:40.300Z,30.58
2023-04-29T17:54:10.392Z,30.67
2023-04-29T17:56:39.404Z,24.83
2023-04-29T17:59:08.738Z,29.65
2023-04-29T18:01:38.408Z,29.50
2023-04-29T18:04:07.686Z,31.58
2023-04-29T18:06:36.036Z,33.63
2023-04-29T18:09:04.563Z,31.38
2023-04-29T18:11:35.109Z,34.88
2023-04-29T18:14:03.399Z,34.50
2023-04-29T18:16:31.415Z,35.25
2023-04-29T18:18:59.466Z,36.83
2023-04-29T18:21:29.073Z,32.97
2023-04-29T18:23:57.817Z,30.27
2023-04-29T18:26:26.035Z,28.58
2023-04-29T18:28:56.136Z,27.83
2023-04-29T18:31:26.667Z,31.33
2023-04-29T18:33:54.766Z,29.23
2023-04-29T18:36:23.751Z,35.42
2023-04-29T18:38:52.487Z,30.35
2023-04-29T18:41:21.403Z,29.63
2023-04-29T18:43:49.429Z,29.58
2023-04-29T18:46:18.931Z,28.50
2023-04-29T18:48:46.997Z,29.02
2023-04-29T18:51:14.976Z,29.05
2023-04-29T18:53:43.072Z,29.63
2023-04-29T18:56:11.446Z,27.70
2023-04-29T18:58:39.493Z,31.80
2023-04-29T19:01:08.009Z,38.20
2023-04-29T19:03:37.670Z,32.25
2023-04-29T19:06:05.874Z,29.98
2023-04-29T19:08:34.247Z,27.35
2023-04-29T19:11:03.866Z,28.35
2023-04-29T19:13:32.263Z,30.52
2023-04-29T19:16:00.742Z,28.67
2023-04-29T19:18:30.018Z,25.75
2023-04-29T19:20:59.667Z,36.85
2023-04-29T19:23:27.679Z,31.20
2023-04-29T19:25:55.773Z,32.17
2023-04-29T19:28:24.166Z,31.48
2023-04-29T19:30:52.163Z,30.23
2023-04-29T19:33:20.232Z,30.52
2023-04-29T19:35:48.908Z,30.08
2023-04-29T19:38:18.689Z,37.05
2023-04-29T19:40:46.707Z,37.67
2023-04-29T19:43:15.422Z,41.72
2023-04-29T19:45:43.455Z,33.78
2023-04-29T19:48:11.545Z,41.00
2023-04-29T19:50:39.886Z,32.25
2023-04-29T19:53:08.281Z,34.45
2023-04-29T19:55:39.120Z,30.85
2023-04-29T19:58:07.426Z,24.10
2023-04-29T20:00:36.373Z,24.55
2023-04-29T20:03:04.795Z,27.15
2023-04-29T20:05:32.890Z,29.27
2023-04-29T20:08:00.979Z,29.67
2023-04-29T20:10:30.138Z,26.75
2023-04-29T20:12:59.769Z,28.85
2023-04-29T20:15:27.806Z,29.52
2023-04-29T20:17:56.064Z,26.02
2023-04-29T20:20:25.081Z,32.95
2023-04-29T20:22:57.848Z,31.90
2023-04-29T20:25:27.233Z,26.38
2023-04-29T20:27:56.713Z,33.83
2023-04-29T20:30:27.136Z,37.15
2023-04-29T20:32:55.263Z,39.28
2023-04-29T20:35:23.450Z,42.55
2023-04-29T20:37:51.830Z,38.85
2023-04-29T20:40:20.164Z,41.08
2023-04-29T20:42:48.770Z,51.13
2023-04-29T20:45:16.949Z,42.45
2023-04-29T20:47:46.598Z,43.88
2023-04-29T20:50:15.423Z,40.88
2023-04-29T20:52:43.671Z,40.10
2023-04-29T20:55:12.188Z,36.90
2023-04-29T20:57:40.405Z,42.13
2023-04-29T21:00:10.178Z,40.38
2023-04-29T21:02:38.396Z,35.85
2023-04-29T21:05:09.955Z,34.08
2023-04-29T21:07:38.238Z,41.30
2023-04-29T21:10:07.787Z,50.47
2023-04-29T21:12:35.834Z,46.35
2023-04-29T21:15:04.393Z,42.13
2023-04-29T21:17:32.495Z,50.33
2023-04-29T21:20:00.908Z,50.60
2023-04-29T21:22:30.251Z,54.55
2023-04-29T21:24:58.297Z,55.13
2023-04-29T21:27:26.363Z,62.15
2023-04-29T21:29:57.766Z,56.17
2023-04-29T21:32:25.862Z,64.63
2023-04-29T21:34:53.900Z,75.63
2023-04-29T21:37:22.461Z,101.03
2023-04-29T21:39:52.557Z,101.13
2023-04-29T21:42:23.249Z,105.97
2023-04-29T21:44:51.493Z,98.95
2023-04-29T21:47:19.779Z,98.25
2023-04-29T21:49:49.037Z,103.78
2023-04-29T21:52:17.569Z,98.35
2023-04-29T21:54:45.654Z,94.97
2023-04-29T21:57:15.411Z,106.45
2023-04-29T21:59:43.705Z,95.47
2023-04-29T22:02:22.048Z,92.07
2023-04-29T22:04:51.412Z,70.68
2023-04-29T22:07:19.611Z,69.43
2023-04-29T22:09:49.702Z,55.78
2023-04-29T22:12:20.173Z,52.95
2023-04-29T22:14:48.415Z,49.28
2023-04-29T22:17:16.504Z,47.70
2023-04-29T22:19:44.882Z,43.72
2023-04-29T22:22:12.924Z,48.22
2023-04-29T22:24:41.041Z,43.25
2023-04-29T22:27:09.187Z,45.03
2023-04-29T22:29:39.420Z,40.45
2023-04-29T22:32:07.758Z,53.42
2023-04-29T22:34:35.994Z,47.70
2023-04-29T22:37:04.049Z,44.28
2023-04-29T22:39:32.205Z,49.10
2023-04-29T22:42:00.265Z,63.05
2023-04-29T22:44:28.326Z,46.35
2023-04-29T22:46:57.982Z,53.35
2023-04-29T22:49:26.192Z,46.90
2023-04-29T22:51:54.221Z,50.67
2023-04-29T22:54:22.452Z,49.53
2023-04-29T22:56:50.498Z,51.03
2023-04-29T22:59:18.666Z,54.60
2023-04-29T23:01:46.710Z,46.47
2023-04-29T23:04:16.268Z,44.70
2023-04-29T23:06:44.402Z,44.95
2023-04-29T23:09:12.729Z,47.67
2023-04-29T23:11:40.745Z,50.63
2023-04-29T23:14:08.734Z,48.55
2023-04-29T23:16:36.824Z,52.90
2023-04-29T23:19:04.861Z,42.67
2023-04-29T23:21:34.677Z,59.85
2023-04-29T23:24:02.717Z,50.45
2023-04-29T23:26:30.774Z,50.90
2023-04-29T23:28:58.780Z,52.75
2023-04-29T23:31:26.950Z,45.25
2023-04-29T23:33:55.185Z,46.72
2023-04-29T23:36:23.151Z,47.22
2023-04-29T23:38:52.554Z,49.20
2023-04-29T23:41:20.823Z,48.63
2023-04-29T23:43:48.875Z,52.20
2023-04-29T23:46:16.904Z,45.05
2023-04-29T23:48:44.957Z,44.35
2023-04-29T23:51:12.954Z,44.88
2023-04-29T23:53:40.984Z,47.45
2023-04-29T23:56:10.570Z,43.92
2023-04-29T23:58:38.592Z,47.97
